sensor_id;sensor_type;location;lat;lon;timestamp;pressure;altitude;pressure_sealevel;temperature;humidity
25650;BME280;13505;45.196;5.696;2023-04-02T04:04:17;98947.69;;;9.12;92.09
25650;BME280;13505;45.196;5.696;2023-04-02T04:09:17;98949.31;;;9.16;91.42
25650;BME280;13505;45.196;5.696;2023-04-02T04:14:19;98950.09;;;9.18;91.64
25650;BME280;13505;45.196;5.696;2023-04-02T04:19:37;98956.19;;;9.18;92.33
25650;BME280;13505;45.196;5.696;2023-04-02T04:24:29;98955.34;;;9.18;93.15
25650;BME280;13505;45.196;5.696;2023-04-02T04:34:44;98958.44;;;9.07;93.68
25650;BME280;13505;45.196;5.696;2023-04-02T04:39:46;98956.34;;;8.94;94.67
25650;BME280;13505;45.196;5.696;2023-04-02T04:49:53;98960.66;;;8.75;95.70
25650;BME280;13505;45.196;5.696;2023-04-02T04:54:46;98965.22;;;8.71;95.67
25650;BME280;13505;45.196;5.696;2023-04-02T04:59:48;98964.53;;;8.66;95.74
25650;BME280;13505;45.196;5.696;2023-04-02T05:04:47;98968.13;;;8.63;96.05
25650;BME280;13505;45.196;5.696;2023-04-02T05:09:41;98968.47;;;8.56;96.57
25650;BME280;13505;45.196;5.696;2023-04-02T05:19:58;98978.75;;;8.62;96.40
25650;BME280;13505;45.196;5.696;2023-04-02T05:29:48;98989.00;;;8.46;97.00
25650;BME280;13505;45.196;5.696;2023-04-02T05:34:46;98989.09;;;8.43;97.45
25650;BME280;13505;45.196;5.696;2023-04-02T05:39:37;98996.31;;;8.37;96.60
25650;BME280;13505;45.196;5.696;2023-04-02T05:44:36;98990.94;;;8.41;97.39
25650;BME280;13505;45.196;5.696;2023-04-02T06:00:03;99007.66;;;8.62;96.97
25650;BME280;13505;45.196;5.696;2023-04-02T06:09:48;99008.81;;;8.77;96.91
25650;BME280;13505;45.196;5.696;2023-04-02T06:14:40;99015.19;;;8.92;96.19
25650;BME280;13505;45.196;5.696;2023-04-02T06:19:34;99007.81;;;9.00;95.38
25650;BME280;13505;45.196;5.696;2023-04-02T06:24:28;99009.47;;;9.24;93.82
25650;BME280;13505;45.196;5.696;2023-04-02T06:34:16;99020.56;;;9.72;89.83
25650;BME280;13505;45.196;5.696;2023-04-02T06:39:14;99023.44;;;10.05;88.12
25650;BME280;13505;45.196;5.696;2023-04-02T06:44:13;99027.13;;;10.40;86.13
25650;BME280;13505;45.196;5.696;2023-04-02T06:54:25;99028.09;;;10.56;84.78
25650;BME280;13505;45.196;5.696;2023-04-02T06:59:16;99038.78;;;10.72;83.70
25650;BME280;13505;45.196;5.696;2023-04-02T07:04:07;99036.06;;;10.74;82.52
25650;BME280;13505;45.196;5.696;2023-04-02T07:08:59;99043.66;;;10.63;83.13
25650;BME280;13505;45.196;5.696;2023-04-02T07:13:49;99048.16;;;10.60;83.86
25650;BME280;13505;45.196;5.696;2023-04-02T07:18:40;99056.34;;;10.73;84.32
25650;BME280;13505;45.196;5.696;2023-04-02T07:23:31;99062.19;;;10.61;85.61
25650;BME280;13505;45.196;5.696;2023-04-02T07:28:22;99062.44;;;10.74;85.57
25650;BME280;13505;45.196;5.696;2023-04-02T07:33:18;99065.97;;;10.92;84.87
25650;BME280;13505;45.196;5.696;2023-04-02T07:38:09;99070.09;;;10.98;82.79
25650;BME280;13505;45.196;5.696;2023-04-02T07:43:00;99067.22;;;11.02;83.08
25650;BME280;13505;45.196;5.696;2023-04-02T07:47:51;99067.53;;;11.14;84.26
25650;BME280;13505;45.196;5.696;2023-04-02T07:52:42;99074.69;;;11.12;85.38
25650;BME280;13505;45.196;5.696;2023-04-02T07:57:32;99081.53;;;11.16;84.16
25650;BME280;13505;45.196;5.696;2023-04-02T08:02:27;99070.66;;;11.22;85.46
25650;BME280;13505;45.196;5.696;2023-04-02T08:07:18;99093.41;;;11.25;85.04
25650;BME280;13505;45.196;5.696;2023-04-02T08:12:11;99096.56;;;11.14;83.84
25650;BME280;13505;45.196;5.696;2023-04-02T08:17:02;99100.88;;;11.34;83.30
25650;BME280;13505;45.196;5.696;2023-04-02T08:21:52;99101.50;;;11.39;80.43
25650;BME280;13505;45.196;5.696;2023-04-02T08:26:47;99103.91;;;11.44;79.50
25650;BME280;13505;45.196;5.696;2023-04-02T08:31:38;99112.06;;;11.57;78.36
25650;BME280;13505;45.196;5.696;2023-04-02T08:36:32;99117.41;;;11.55;77.86
25650;BME280;13505;45.196;5.696;2023-04-02T08:41:24;99114.00;;;11.53;77.03
25650;BME280;13505;45.196;5.696;2023-04-02T08:51:32;99135.13;;;11.53;77.37
25650;BME280;13505;45.196;5.696;2023-04-02T08:56:48;99139.31;;;11.75;75.68
25650;BME280;13505;45.196;5.696;2023-04-02T09:01:47;99141.19;;;11.91;74.99
25650;BME280;13505;45.196;5.696;2023-04-02T09:06:41;99143.50;;;12.14;74.53
25650;BME280;13505;45.196;5.696;2023-04-02T09:11:46;99145.28;;;12.14;73.37
25650;BME280;13505;45.196;5.696;2023-04-02T09:16:43;99146.88;;;12.34;73.84
25650;BME280;13505;45.196;5.696;2023-04-02T09:21:39;99146.63;;;12.05;72.22
25650;BME280;13505;45.196;5.696;2023-04-02T09:26:32;99154.94;;;12.31;72.88
25650;BME280;13505;45.196;5.696;2023-04-02T09:31:44;99147.47;;;12.39;73.23
25650;BME280;13505;45.196;5.696;2023-04-02T09:36:38;99161.28;;;12.28;71.00
25650;BME280;13505;45.196;5.696;2023-04-02T09:41:29;99147.59;;;13.02;70.68
25650;BME280;13505;45.196;5.696;2023-04-02T09:46:22;99163.59;;;13.47;66.90
25650;BME280;13505;45.196;5.696;2023-04-02T09:51:16;99155.22;;;13.55;65.30
25650;BME280;13505;45.196;5.696;2023-04-02T09:56:11;99156.91;;;13.56;65.28
25650;BME280;13505;45.196;5.696;2023-04-02T10:01:02;99159.34;;;13.45;64.67
25650;BME280;13505;45.196;5.696;2023-04-02T10:06:05;99163.69;;;13.91;65.44
25650;BME280;13505;45.196;5.696;2023-04-02T10:10:59;99170.19;;;14.59;62.49
25650;BME280;13505;45.196;5.696;2023-04-02T10:15:56;99169.00;;;14.92;62.10
25650;BME280;13505;45.196;5.696;2023-04-02T10:20:49;99167.41;;;15.17;61.99
25650;BME280;13505;45.196;5.696;2023-04-02T10:25:56;99172.09;;;15.54;60.14
25650;BME280;13505;45.196;5.696;2023-04-02T10:31:02;99178.03;;;14.90;60.74
25650;BME280;13505;45.196;5.696;2023-04-02T10:41:17;99166.84;;;14.56;65.19
25650;BME280;13505;45.196;5.696;2023-04-02T10:51:38;99166.59;;;15.57;56.58
25650;BME280;13505;45.196;5.696;2023-04-02T10:56:31;99176.47;;;15.28;57.71
25650;BME280;13505;45.196;5.696;2023-04-02T11:01:27;99174.44;;;15.18;56.03
25650;BME280;13505;45.196;5.696;2023-04-02T11:16:02;99175.47;;;14.59;59.45
25650;BME280;13505;45.196;5.696;2023-04-02T11:20:58;99170.53;;;15.24;57.37
25650;BME280;13505;45.196;5.696;2023-04-02T11:25:49;99185.78;;;15.35;57.03
25650;BME280;13505;45.196;5.696;2023-04-02T11:30:40;99176.94;;;15.75;57.95
25650;BME280;13505;45.196;5.696;2023-04-02T11:50:39;99206.06;;;15.36;55.63
25650;BME280;13505;45.196;5.696;2023-04-02T11:55:31;99198.47;;;15.17;58.40
25650;BME280;13505;45.196;5.696;2023-04-02T12:05:41;99206.00;;;15.51;55.74
25650;BME280;13505;45.196;5.696;2023-04-02T12:10:58;99217.28;;;15.41;57.37
25650;BME280;13505;45.196;5.696;2023-04-02T12:15:51;99196.78;;;15.97;54.58
25650;BME280;13505;45.196;5.696;2023-04-02T12:20:46;99199.47;;;16.10;54.56
25650;BME280;13505;45.196;5.696;2023-04-02T12:25:37;99197.66;;;16.23;54.03
25650;BME280;13505;45.196;5.696;2023-04-02T12:30:29;99185.59;;;16.69;53.40
25650;BME280;13505;45.196;5.696;2023-04-02T12:35:30;99196.13;;;17.21;51.92
25650;BME280;13505;45.196;5.696;2023-04-02T12:40:23;99197.53;;;17.63;52.10
25650;BME280;13505;45.196;5.696;2023-04-02T12:45:25;99214.22;;;16.79;55.80
25650;BME280;13505;45.196;5.696;2023-04-02T12:50:16;99212.56;;;16.39;57.07
25650;BME280;13505;45.196;5.696;2023-04-02T12:55:17;99213.00;;;16.58;56.10
25650;BME280;13505;45.196;5.696;2023-04-02T13:05:11;99208.78;;;15.49;56.39
25650;BME280;13505;45.196;5.696;2023-04-02T13:10:22;99192.69;;;15.38;55.69
25650;BME280;13505;45.196;5.696;2023-04-02T13:15:30;99193.97;;;15.45;54.70
25650;BME280;13505;45.196;5.696;2023-04-02T13:20:31;99195.63;;;15.60;54.26
25650;BME280;13505;45.196;5.696;2023-04-02T13:25:28;99198.69;;;15.95;52.72
25650;BME280;13505;45.196;5.696;2023-04-02T13:30:23;99189.69;;;15.70;54.10
25650;BME280;13505;45.196;5.696;2023-04-02T13:35:14;99184.50;;;15.81;53.34
25650;BME280;13505;45.196;5.696;2023-04-02T13:40:05;99181.78;;;15.55;54.50
25650;BME280;13505;45.196;5.696;2023-04-02T13:44:55;99182.28;;;15.47;55.82
25650;BME280;13505;45.196;5.696;2023-04-02T13:49:46;99183.47;;;15.43;54.63
25650;BME280;13505;45.196;5.696;2023-04-02T13:54:49;99191.31;;;15.45;55.03
25650;BME280;13505;45.196;5.696;2023-04-02T13:59:40;99205.09;;;15.10;55.92
25650;BME280;13505;45.196;5.696;2023-04-02T14:04:33;99199.44;;;15.01;56.28
25650;BME280;13505;45.196;5.696;2023-04-02T14:09:39;99190.22;;;15.07;55.87
25650;BME280;13505;45.196;5.696;2023-04-02T14:35:42;99192.53;;;15.54;54.74
25650;BME280;13505;45.196;5.696;2023-04-02T14:50:39;99202.88;;;15.03;55.19
25650;BME280;13505;45.196;5.696;2023-04-02T14:55:42;99201.06;;;15.31;54.16
25650;BME280;13505;45.196;5.696;2023-04-02T15:00:41;99196.91;;;14.85;54.94
25650;BME280;13505;45.196;5.696;2023-04-02T15:10:31;99209.03;;;14.17;58.69
25650;BME280;13505;45.196;5.696;2023-04-02T15:30:59;99232.06;;;13.86;63.38
25650;BME280;13505;45.196;5.696;2023-04-02T15:41:24;99237.75;;;13.63;67.34
25650;BME280;13505;45.196;5.696;2023-04-02T15:51:28;99241.59;;;13.42;69.15
25650;BME280;13505;45.196;5.696;2023-04-02T16:06:28;99248.22;;;13.18;67.29
25650;BME280;13505;45.196;5.696;2023-04-02T16:11:22;99250.06;;;13.00;66.39
25650;BME280;13505;45.196;5.696;2023-04-02T16:21:18;99259.28;;;12.93;67.04
25650;BME280;13505;45.196;5.696;2023-04-02T16:31:49;99270.28;;;12.85;66.20
25650;BME280;13505;45.196;5.696;2023-04-02T16:36:52;99271.75;;;12.75;66.51
25650;BME280;13505;45.196;5.696;2023-04-02T16:47:20;99291.06;;;12.93;65.51
25650;BME280;13505;45.196;5.696;2023-04-02T17:12:12;99312.34;;;12.40;74.22
25650;BME280;13505;45.196;5.696;2023-04-02T17:17:04;99321.13;;;12.23;76.01
25650;BME280;13505;45.196;5.696;2023-04-02T17:22:03;99328.88;;;12.08;77.76
25650;BME280;13505;45.196;5.696;2023-04-02T17:26:59;99329.47;;;11.96;79.61
25650;BME280;13505;45.196;5.696;2023-04-02T17:31:57;99333.63;;;11.82;81.24
25650;BME280;13505;45.196;5.696;2023-04-02T17:37:01;99337.25;;;11.43;85.28
25650;BME280;13505;45.196;5.696;2023-04-02T17:42:06;99336.84;;;11.33;86.91
25650;BME280;13505;45.196;5.696;2023-04-02T17:47:20;99342.59;;;11.22;88.36
25650;BME280;13505;45.196;5.696;2023-04-02T17:52:20;99354.16;;;11.20;89.13
25650;BME280;13505;45.196;5.696;2023-04-02T18:13:32;99370.72;;;11.23;87.35
25650;BME280;13505;45.196;5.696;2023-04-02T18:38:58;99393.72;;;11.00;88.56
25650;BME280;13505;45.196;5.696;2023-04-02T18:44:14;99391.22;;;10.97;88.40
25650;BME280;13505;45.196;5.696;2023-04-02T18:49:19;99407.31;;;10.91;90.45
25650;BME280;13505;45.196;5.696;2023-04-02T18:54:21;99416.03;;;10.72;90.95
25650;BME280;13505;45.196;5.696;2023-04-02T18:59:33;99421.66;;;10.85;90.74
25650;BME280;13505;45.196;5.696;2023-04-02T19:04:31;99422.03;;;10.76;91.29
25650;BME280;13505;45.196;5.696;2023-04-02T19:09:28;99418.63;;;10.74;90.96
25650;BME280;13505;45.196;5.696;2023-04-02T19:14:21;99427.19;;;10.58;92.04
25650;BME280;13505;45.196;5.696;2023-04-02T19:19:24;99425.13;;;10.44;95.45
25650;BME280;13505;45.196;5.696;2023-04-02T19:34:38;99449.66;;;10.46;94.30
25650;BME280;13505;45.196;5.696;2023-04-02T19:39:49;99455.38;;;10.56;93.04
25650;BME280;13505;45.196;5.696;2023-04-02T19:44:45;99465.41;;;10.48;92.92
25650;BME280;13505;45.196;5.696;2023-04-02T19:49:37;99464.16;;;10.57;91.91
25650;BME280;13505;45.196;5.696;2023-04-02T19:54:27;99473.19;;;10.51;92.41
25650;BME280;13505;45.196;5.696;2023-04-02T19:59:17;99474.69;;;10.34;93.90
25650;BME280;13505;45.196;5.696;2023-04-02T20:04:08;99475.09;;;10.47;92.83
25650;BME280;13505;45.196;5.696;2023-04-02T20:08:58;99485.81;;;10.43;92.56
25650;BME280;13505;45.196;5.696;2023-04-02T20:13:49;99477.81;;;10.22;94.93
25650;BME280;13505;45.196;5.696;2023-04-02T20:18:39;99483.84;;;10.26;94.72
25650;BME280;13505;45.196;5.696;2023-04-02T20:23:29;99479.63;;;10.44;93.01
25650;BME280;13505;45.196;5.696;2023-04-02T20:28:21;99487.31;;;10.50;91.63
25650;BME280;13505;45.196;5.696;2023-04-02T20:33:12;99484.28;;;10.37;92.96
25650;BME280;13505;45.196;5.696;2023-04-02T20:38:03;99485.13;;;10.38;93.63
25650;BME280;13505;45.196;5.696;2023-04-02T20:42:55;99485.69;;;10.24;95.27
25650;BME280;13505;45.196;5.696;2023-04-02T20:47:45;99492.63;;;10.26;94.49
25650;BME280;13505;45.196;5.696;2023-04-02T20:52:36;99490.78;;;10.28;94.67
25650;BME280;13505;45.196;5.696;2023-04-02T20:57:29;99499.22;;;10.14;95.41
25650;BME280;13505;45.196;5.696;2023-04-02T21:02:20;99491.50;;;10.10;96.40
25650;BME280;13505;45.196;5.696;2023-04-02T21:07:10;99503.56;;;10.15;96.18
25650;BME280;13505;45.196;5.696;2023-04-02T21:12:00;99491.25;;;10.16;95.64
25650;BME280;13505;45.196;5.696;2023-04-02T21:16:51;99491.63;;;10.07;95.70
25650;BME280;13505;45.196;5.696;2023-04-02T21:21:41;99497.13;;;10.00;96.16
25650;BME280;13505;45.196;5.696;2023-04-02T21:26:36;99491.28;;;9.92;95.77
25650;BME280;13505;45.196;5.696;2023-04-02T21:31:28;99499.34;;;9.87;96.78
25650;BME280;13505;45.196;5.696;2023-04-02T21:36:25;99494.28;;;9.83;97.29
25650;BME280;13505;45.196;5.696;2023-04-02T21:46:11;99490.81;;;9.81;95.64
25650;BME280;13505;45.196;5.696;2023-04-02T21:51:12;99493.25;;;9.63;96.88
25650;BME280;13505;45.196;5.696;2023-04-02T21:56:06;99495.72;;;9.68;97.06
